createdAt,value
2018-12-22T11:41:48.303Z,1.20
2018-12-22T11:44:22.854Z,0.70
2018-12-22T11:47:01.133Z,1.00
2018-12-22T11:49:36.070Z,0.80
2018-12-22T11:52:10.523Z,0.67
2018-12-22T11:54:46.769Z,0.70
2018-12-22T11:57:21.608Z,1.00
2018-12-22T11:59:57.010Z,0.80
2018-12-22T12:02:32.531Z,0.90
2018-12-22T12:05:09.900Z,0.63
2018-12-22T12:07:50.713Z,0.60
2018-12-22T12:10:25.806Z,0.90
2018-12-22T12:13:00.296Z,0.77
2018-12-22T12:15:39.049Z,0.97
2018-12-22T12:18:38.220Z,0.87
2018-12-22T12:21:13.476Z,1.53
2018-12-22T12:23:48.237Z,0.70
2018-12-22T12:26:23.500Z,0.80
2018-12-22T12:29:08.720Z,0.60
2018-12-22T12:31:43.192Z,0.90
2018-12-22T12:34:18.387Z,0.87
2018-12-22T12:36:53.355Z,0.90
2018-12-22T12:39:27.861Z,1.00
2018-12-22T12:42:02.537Z,0.80
2018-12-22T12:44:38.534Z,0.80
2018-12-22T12:47:13.430Z,0.97
2018-12-22T12:49:47.884Z,1.20
2018-12-22T12:52:22.788Z,0.93
2018-12-22T12:54:57.365Z,0.87
2018-12-22T12:57:31.783Z,0.80
2018-12-22T13:00:15.440Z,0.70
2018-12-22T13:02:50.260Z,1.00
2018-12-22T13:05:34.662Z,0.70
2018-12-22T13:08:09.477Z,0.70
2018-12-22T13:10:44.945Z,0.83
2018-12-22T13:13:32.618Z,0.90
2018-12-22T13:16:08.060Z,0.90
2018-12-22T13:18:43.040Z,0.77
2018-12-22T13:21:17.708Z,0.80
2018-12-22T13:23:52.262Z,0.70
2018-12-22T13:26:26.803Z,0.67
2018-12-22T13:29:01.244Z,0.80
2018-12-22T13:31:36.004Z,0.80
2018-12-22T13:34:10.481Z,0.90
2018-12-22T13:36:45.129Z,0.80
2018-12-22T13:39:20.454Z,0.80
2018-12-22T13:41:55.051Z,0.63
2018-12-22T13:44:30.396Z,0.70
2018-12-22T13:47:07.394Z,0.80
2018-12-22T13:49:41.962Z,1.20
2018-12-22T13:52:16.422Z,0.50
2018-12-22T13:54:51.821Z,0.70
2018-12-22T13:57:26.589Z,0.60
2018-12-22T14:00:01.508Z,0.70
2018-12-22T14:02:36.503Z,0.70
2018-12-22T14:05:30.353Z,0.40
2018-12-22T14:08:04.397Z,0.50
2018-12-22T14:10:39.071Z,0.73
2018-12-22T14:13:13.735Z,0.47
2018-12-22T14:15:50.343Z,0.57
2018-12-22T14:18:29.784Z,0.70
2018-12-22T14:21:05.447Z,0.80
2018-12-22T14:23:46.254Z,0.63
2018-12-22T14:26:20.463Z,0.60
2018-12-22T14:28:56.018Z,0.70
2018-12-22T14:31:30.543Z,0.60
2018-12-22T14:34:15.954Z,0.60
2018-12-22T14:36:51.770Z,0.70
2018-12-22T14:39:26.393Z,0.70
2018-12-22T14:42:01.125Z,0.70
2018-12-22T14:44:36.253Z,0.80
2018-12-22T14:47:10.783Z,0.77
2018-12-22T14:49:45.192Z,0.43
2018-12-22T14:52:19.749Z,0.90
2018-12-22T14:54:55.319Z,0.63
2018-12-22T14:57:31.656Z,1.00
2018-12-22T15:00:11.322Z,1.00
2018-12-22T15:02:48.129Z,0.93
2018-12-22T15:05:23.826Z,0.90
2018-12-22T15:08:06.187Z,1.30
2018-12-22T15:10:40.813Z,0.90
2018-12-22T15:13:15.534Z,1.00
2018-12-22T15:15:50.125Z,0.70
2018-12-22T15:18:24.885Z,1.20
2018-12-22T15:20:59.309Z,1.30
2018-12-22T15:23:33.614Z,0.77
2018-12-22T15:26:08.185Z,1.07
2018-12-22T15:28:47.157Z,0.70
2018-12-22T15:31:20.768Z,0.90
2018-12-22T15:33:55.358Z,0.90
2018-12-22T15:36:29.537Z,0.73
2018-12-22T15:39:06.279Z,1.10
2018-12-22T15:41:40.659Z,1.17
2018-12-22T15:44:14.903Z,1.13
2018-12-22T15:46:51.130Z,1.50
2018-12-22T15:49:25.830Z,1.27
2018-12-22T15:52:10.664Z,1.30
2018-12-22T15:54:44.830Z,1.40
2018-12-22T15:57:19.323Z,1.40
2018-12-22T15:59:53.838Z,1.80
2018-12-22T16:02:29.261Z,1.80
2018-12-22T16:05:06.918Z,1.60
2018-12-22T16:07:42.375Z,1.70
2018-12-22T16:10:16.859Z,1.97
2018-12-22T16:12:51.466Z,1.90
2018-12-22T16:15:27.021Z,1.90
2018-12-22T16:18:01.640Z,1.80
2018-12-22T16:20:36.020Z,2.13
2018-12-22T16:23:11.668Z,2.10
2018-12-22T16:25:46.200Z,2.10
2018-12-22T16:28:20.933Z,2.20
2018-12-22T16:30:58.086Z,1.77
2018-12-22T16:33:33.777Z,2.00
2018-12-22T16:36:08.585Z,1.77
2018-12-22T16:38:43.660Z,1.90
2018-12-22T16:41:18.602Z,2.00
2018-12-22T16:43:53.211Z,1.97
2018-12-22T16:46:27.487Z,1.90
2018-12-22T16:49:02.732Z,1.73
2018-12-22T16:51:38.586Z,2.10
2018-12-22T16:54:13.229Z,1.80
2018-12-22T16:56:48.004Z,2.20
2018-12-22T16:59:34.045Z,1.80
2018-12-22T17:02:10.675Z,2.13
2018-12-22T17:04:45.405Z,1.93
2018-12-22T17:07:19.971Z,2.83
2018-12-22T17:09:55.368Z,2.97
2018-12-22T17:12:33.779Z,3.00
2018-12-22T17:15:12.459Z,2.27
2018-12-22T17:17:47.427Z,2.60
2018-12-22T17:20:21.883Z,3.67
2018-12-22T17:23:12.320Z,7.60
2018-12-22T17:25:51.167Z,6.10
2018-12-22T17:28:28.644Z,5.13
2018-12-22T17:31:03.311Z,4.70
2018-12-22T17:33:37.718Z,5.40
2018-12-22T17:36:12.255Z,4.90
2018-12-22T17:38:47.459Z,4.23
2018-12-22T17:41:22.954Z,3.20
2018-12-22T17:43:57.811Z,3.20
2018-12-22T17:46:34.448Z,3.73
2018-12-22T17:49:09.003Z,3.60
2018-12-22T17:51:43.621Z,3.57
2018-12-22T17:54:18.682Z,2.27
2018-12-22T17:56:52.849Z,2.27
2018-12-22T17:59:28.173Z,2.07
2018-12-22T18:02:07.621Z,2.20
2018-12-22T18:04:46.768Z,2.33
2018-12-22T18:07:22.632Z,2.17
2018-12-22T18:09:57.405Z,1.90
2018-12-22T18:12:35.703Z,2.10
2018-12-22T18:15:12.608Z,2.20
2018-12-22T18:17:48.768Z,2.00
2018-12-22T18:20:22.973Z,1.70
2018-12-22T18:22:57.646Z,1.97
2018-12-22T18:25:32.643Z,1.97
2018-12-22T18:28:07.630Z,1.80
2018-12-22T18:30:47.632Z,1.77
2018-12-22T18:33:21.875Z,1.90
2018-12-22T18:35:57.588Z,1.93
2018-12-22T18:38:33.604Z,1.60
2018-12-22T18:41:09.189Z,1.80
2018-12-22T18:43:50.674Z,1.50
2018-12-22T18:46:26.293Z,1.47
2018-12-22T18:49:01.223Z,1.40
2018-12-22T18:51:36.493Z,1.43
2018-12-22T18:54:12.255Z,1.90
2018-12-22T18:56:50.681Z,1.70
2018-12-22T18:59:25.915Z,1.73
2018-12-22T19:02:00.733Z,1.47
2018-12-22T19:04:36.833Z,1.37
2018-12-22T19:07:11.704Z,1.67
2018-12-22T19:09:46.610Z,1.50
2018-12-22T19:12:21.691Z,1.73
2018-12-22T19:14:58.369Z,2.03
2018-12-22T19:17:36.349Z,1.80
2018-12-22T19:20:16.446Z,1.80
2018-12-22T19:22:52.363Z,1.83
2018-12-22T19:25:27.860Z,1.60
2018-12-22T19:28:03.694Z,1.70
2018-12-22T19:30:38.097Z,1.83
2018-12-22T19:33:13.794Z,2.10
2018-12-22T19:35:48.177Z,1.83
2018-12-22T19:38:22.807Z,1.70
2018-12-22T19:40:57.315Z,2.10
2018-12-22T19:43:33.528Z,2.10
2018-12-22T19:46:07.795Z,1.87
2018-12-22T19:48:44.485Z,2.10
2018-12-22T19:51:21.739Z,2.07
2018-12-22T19:53:56.252Z,1.87
2018-12-22T19:56:31.063Z,1.70
2018-12-22T19:59:05.511Z,1.93
2018-12-22T20:01:41.333Z,1.83
2018-12-22T20:04:15.838Z,1.90
2018-12-22T20:06:52.148Z,1.90
2018-12-22T20:09:27.321Z,1.70
2018-12-22T20:14:43.391Z,1.70
2018-12-22T20:17:18.575Z,1.50
2018-12-22T20:19:53.331Z,1.77
2018-12-22T20:22:27.891Z,1.67
2018-12-22T20:25:03.973Z,1.43
2018-12-22T20:27:38.649Z,1.47
2018-12-22T20:30:13.827Z,1.63
2018-12-22T20:32:48.181Z,1.60
2018-12-22T20:35:23.029Z,1.63
2018-12-22T20:37:57.522Z,1.80
2018-12-22T20:40:32.820Z,1.90
2018-12-22T20:43:07.583Z,1.70
2018-12-22T20:45:42.489Z,1.37
2018-12-22T20:48:16.920Z,1.70
2018-12-22T20:50:52.406Z,1.50
2018-12-22T20:53:27.120Z,1.63
2018-12-22T20:56:01.608Z,1.57
2018-12-22T20:58:38.685Z,1.63
2018-12-22T21:01:13.472Z,1.50
2018-12-22T21:03:48.122Z,1.70
2018-12-22T21:06:28.385Z,1.73
2018-12-22T21:09:05.086Z,1.97
2018-12-22T21:11:46.666Z,1.60
2018-12-22T21:14:21.981Z,1.57
2018-12-22T21:16:56.871Z,1.77
2018-12-22T21:19:31.423Z,1.50
2018-12-22T21:22:09.459Z,1.87
2018-12-22T21:27:29.548Z,2.00
2018-12-22T21:30:06.445Z,1.30
2018-12-22T21:32:41.364Z,1.40
2018-12-22T21:35:16.036Z,1.50
2018-12-22T21:37:53.416Z,1.67
2018-12-22T21:40:28.260Z,38.67
2018-12-22T21:43:02.807Z,43.73
2018-12-22T21:45:37.328Z,69.27
2018-12-22T21:48:15.606Z,69.43
2018-12-22T21:50:53.596Z,72.03
2018-12-22T21:53:29.682Z,84.20
2018-12-22T21:56:04.602Z,0.83
2018-12-22T21:58:41.509Z,86.42
2018-12-22T22:01:16.416Z,51.70
2018-12-22T22:03:53.957Z,1.10
2018-12-22T22:06:29.878Z,67.27
2018-12-22T22:09:05.905Z,59.00
2018-12-22T22:11:43.261Z,6.00
2018-12-22T22:14:19.196Z,4.90
2018-12-22T22:16:53.445Z,9.78
2018-12-22T22:19:29.396Z,2.27
2018-12-22T22:22:03.730Z,1.77
2018-12-22T22:24:49.019Z,5.33
2018-12-22T22:27:24.421Z,0.88
2018-12-22T22:29:59.309Z,0.40
2018-12-22T22:32:33.875Z,0.40
2018-12-22T22:35:08.342Z,0.37
2018-12-22T22:37:43.676Z,1.53
2018-12-22T22:40:17.814Z,1.05
2018-12-22T22:42:52.548Z,0.40
2018-12-22T22:45:27.726Z,0.62
2018-12-22T22:48:03.437Z,0.62
2018-12-22T22:50:38.090Z,0.30
2018-12-22T22:53:12.869Z,0.40
2018-12-22T22:55:49.683Z,0.50
2018-12-22T23:01:21.499Z,0.20
2018-12-22T23:03:56.749Z,0.70
2018-12-22T23:06:32.025Z,1.32
2018-12-22T23:09:07.391Z,0.37
2018-12-22T23:11:41.924Z,1.75
2018-12-22T23:14:16.607Z,1.07
2018-12-22T23:24:38.634Z,0.47
2018-12-22T23:47:52.798Z,0.75
2018-12-22T23:50:27.242Z,0.25
2018-12-22T23:55:36.398Z,0.80
